sensor_id;sensor_type;location;lat;lon;timestamp;temperature;humidity
7307;DHT22;3694;48.732;9.248;2023-08-30T00:02:04;12.30;99.90
7307;DHT22;3694;48.732;9.248;2023-08-30T00:04:30;12.30;99.90
7307;DHT22;3694;48.732;9.248;2023-08-30T00:06:56;12.30;99.90
7307;DHT22;3694;48.732;9.248;2023-08-30T00:09:21;12.40;99.90
7307;DHT22;3694;48.732;9.248;2023-08-30T00:11:47;12.50;99.90
7307;DHT22;3694;48.732;9.248;2023-08-30T00:14:12;12.40;99.90
7307;DHT22;3694;48.732;9.248;2023-08-30T00:16:38;12.40;99.90
7307;DHT22;3694;48.732;9.248;2023-08-30T00:19:04;12.40;99.90
7307;DHT22;3694;48.732;9.248;2023-08-30T00:21:29;12.40;99.90
7307;DHT22;3694;48.732;9.248;2023-08-30T00:23:55;12.40;99.90
7307;DHT22;3694;48.732;9.248;2023-08-30T00:26:21;12.30;99.90
7307;DHT22;3694;48.732;9.248;2023-08-30T00:28:46;12.40;99.90
7307;DHT22;3694;48.732;9.248;2023-08-30T00:31:12;12.40;99.90
7307;DHT22;3694;48.732;9.248;2023-08-30T00:33:38;12.40;99.90
7307;DHT22;3694;48.732;9.248;2023-08-30T00:36:03;12.40;99.90
7307;DHT22;3694;48.732;9.248;2023-08-30T00:38:33;12.40;99.90
7307;DHT22;3694;48.732;9.248;2023-08-30T00:40:59;12.40;99.90
7307;DHT22;3694;48.732;9.248;2023-08-30T00:43:24;12.40;99.90
7307;DHT22;3694;48.732;9.248;2023-08-30T00:45:50;12.40;99.90
7307;DHT22;3694;48.732;9.248;2023-08-30T00:48:18;12.30;99.90
7307;DHT22;3694;48.732;9.248;2023-08-30T00:50:44;12.30;99.90
7307;DHT22;3694;48.732;9.248;2023-08-30T00:53:10;12.30;99.90
7307;DHT22;3694;48.732;9.248;2023-08-30T00:55:37;12.20;99.90
7307;DHT22;3694;48.732;9.248;2023-08-30T00:58:03;12.20;99.90
7307;DHT22;3694;48.732;9.248;2023-08-30T01:00:30;12.20;99.90
7307;DHT22;3694;48.732;9.248;2023-08-30T01:02:56;12.10;99.90
7307;DHT22;3694;48.732;9.248;2023-08-30T01:05:22;12.20;99.90
7307;DHT22;3694;48.732;9.248;2023-08-30T01:07:49;12.20;99.90
7307;DHT22;3694;48.732;9.248;2023-08-30T01:10:15;12.20;99.90
7307;DHT22;3694;48.732;9.248;2023-08-30T01:12:45;12.20;99.90
7307;DHT22;3694;48.732;9.248;2023-08-30T01:15:15;12.10;99.90
7307;DHT22;3694;48.732;9.248;2023-08-30T01:17:44;12.20;99.90
7307;DHT22;3694;48.732;9.248;2023-08-30T01:20:10;12.10;99.90
7307;DHT22;3694;48.732;9.248;2023-08-30T01:23:00;12.10;99.90
7307;DHT22;3694;48.732;9.248;2023-08-30T01:27:58;12.00;99.90
7307;DHT22;3694;48.732;9.248;2023-08-30T01:30:26;12.00;99.90
7307;DHT22;3694;48.732;9.248;2023-08-30T01:32:53;11.90;99.90
7307;DHT22;3694;48.732;9.248;2023-08-30T01:35:20;11.90;99.90
7307;DHT22;3694;48.732;9.248;2023-08-30T01:37:47;11.90;99.90
7307;DHT22;3694;48.732;9.248;2023-08-30T01:40:15;11.80;99.90
7307;DHT22;3694;48.732;9.248;2023-08-30T01:42:42;11.80;99.90
7307;DHT22;3694;48.732;9.248;2023-08-30T01:45:10;11.90;99.90
7307;DHT22;3694;48.732;9.248;2023-08-30T01:47:40;12.00;99.90
7307;DHT22;3694;48.732;9.248;2023-08-30T01:50:06;11.90;99.90
7307;DHT22;3694;48.732;9.248;2023-08-30T01:52:32;11.90;99.90
7307;DHT22;3694;48.732;9.248;2023-08-30T01:55:00;11.80;99.90
7307;DHT22;3694;48.732;9.248;2023-08-30T01:57:27;11.80;99.90
7307;DHT22;3694;48.732;9.248;2023-08-30T01:59:53;11.60;99.90
7307;DHT22;3694;48.732;9.248;2023-08-30T02:02:19;11.60;99.90
7307;DHT22;3694;48.732;9.248;2023-08-30T02:04:44;11.60;99.90
7307;DHT22;3694;48.732;9.248;2023-08-30T02:07:16;11.60;99.90
7307;DHT22;3694;48.732;9.248;2023-08-30T02:09:50;11.50;99.90
7307;DHT22;3694;48.732;9.248;2023-08-30T02:12:22;11.50;99.90
7307;DHT22;3694;48.732;9.248;2023-08-30T02:14:50;11.40;99.90
7307;DHT22;3694;48.732;9.248;2023-08-30T02:17:15;11.20;99.90
7307;DHT22;3694;48.732;9.248;2023-08-30T02:19:43;11.30;99.90
7307;DHT22;3694;48.732;9.248;2023-08-30T02:22:09;11.30;99.90
7307;DHT22;3694;48.732;9.248;2023-08-30T02:24:35;11.30;99.90
7307;DHT22;3694;48.732;9.248;2023-08-30T02:27:00;11.50;99.90
7307;DHT22;3694;48.732;9.248;2023-08-30T02:29:26;11.70;99.90
7307;DHT22;3694;48.732;9.248;2023-08-30T02:31:52;11.80;99.90
7307;DHT22;3694;48.732;9.248;2023-08-30T02:34:17;11.90;99.90
7307;DHT22;3694;48.732;9.248;2023-08-30T02:36:43;12.00;99.90
7307;DHT22;3694;48.732;9.248;2023-08-30T02:39:08;12.10;99.90
7307;DHT22;3694;48.732;9.248;2023-08-30T02:41:34;12.20;99.90
7307;DHT22;3694;48.732;9.248;2023-08-30T02:44:00;12.30;99.90
7307;DHT22;3694;48.732;9.248;2023-08-30T02:46:25;12.30;99.90
7307;DHT22;3694;48.732;9.248;2023-08-30T02:48:51;12.30;99.90
7307;DHT22;3694;48.732;9.248;2023-08-30T02:51:17;12.30;99.90
7307;DHT22;3694;48.732;9.248;2023-08-30T02:53:42;12.40;99.90
7307;DHT22;3694;48.732;9.248;2023-08-30T02:56:08;12.30;99.90
7307;DHT22;3694;48.732;9.248;2023-08-30T02:58:33;12.30;99.90
7307;DHT22;3694;48.732;9.248;2023-08-30T03:01:00;12.30;99.90
7307;DHT22;3694;48.732;9.248;2023-08-30T03:03:26;12.30;99.90
7307;DHT22;3694;48.732;9.248;2023-08-30T03:05:52;12.30;99.90
7307;DHT22;3694;48.732;9.248;2023-08-30T03:08:17;12.30;99.90
7307;DHT22;3694;48.732;9.248;2023-08-30T03:10:43;12.20;99.90
7307;DHT22;3694;48.732;9.248;2023-08-30T03:13:08;12.20;99.90
7307;DHT22;3694;48.732;9.248;2023-08-30T03:15:34;12.10;99.90
7307;DHT22;3694;48.732;9.248;2023-08-30T03:18:00;12.00;99.90
7307;DHT22;3694;48.732;9.248;2023-08-30T03:20:26;11.90;99.90
7307;DHT22;3694;48.732;9.248;2023-08-30T03:22:55;11.90;99.90
7307;DHT22;3694;48.732;9.248;2023-08-30T03:25:21;11.80;99.90
7307;DHT22;3694;48.732;9.248;2023-08-30T03:27:46;11.80;99.90
7307;DHT22;3694;48.732;9.248;2023-08-30T03:30:12;11.70;99.90
7307;DHT22;3694;48.732;9.248;2023-08-30T03:32:38;11.60;99.90
7307;DHT22;3694;48.732;9.248;2023-08-30T03:35:04;11.60;99.90
7307;DHT22;3694;48.732;9.248;2023-08-30T03:37:29;11.50;99.90
7307;DHT22;3694;48.732;9.248;2023-08-30T03:39:55;11.50;99.90
7307;DHT22;3694;48.732;9.248;2023-08-30T03:42:20;11.40;99.90
7307;DHT22;3694;48.732;9.248;2023-08-30T03:44:46;11.30;99.90
7307;DHT22;3694;48.732;9.248;2023-08-30T03:47:11;11.30;99.90
7307;DHT22;3694;48.732;9.248;2023-08-30T03:49:37;11.40;99.90
7307;DHT22;3694;48.732;9.248;2023-08-30T03:52:03;11.50;99.90
7307;DHT22;3694;48.732;9.248;2023-08-30T03:54:28;11.50;99.90
7307;DHT22;3694;48.732;9.248;2023-08-30T03:56:54;11.60;99.90
7307;DHT22;3694;48.732;9.248;2023-08-30T03:59:19;11.60;99.90
7307;DHT22;3694;48.732;9.248;2023-08-30T04:01:45;11.70;99.90
7307;DHT22;3694;48.732;9.248;2023-08-30T04:04:10;11.80;99.90
7307;DHT22;3694;48.732;9.248;2023-08-30T04:06:36;11.90;99.90
7307;DHT22;3694;48.732;9.248;2023-08-30T04:09:02;11.90;99.90
7307;DHT22;3694;48.732;9.248;2023-08-30T04:11:27;11.90;99.90
7307;DHT22;3694;48.732;9.248;2023-08-30T04:13:53;12.00;99.90
7307;DHT22;3694;48.732;9.248;2023-08-30T04:16:18;11.90;99.90
7307;DHT22;3694;48.732;9.248;2023-08-30T04:18:44;11.90;99.90
7307;DHT22;3694;48.732;9.248;2023-08-30T04:21:10;11.80;99.90
7307;DHT22;3694;48.732;9.248;2023-08-30T04:23:35;11.90;99.90
7307;DHT22;3694;48.732;9.248;2023-08-30T04:26:01;11.90;99.90
7307;DHT22;3694;48.732;9.248;2023-08-30T04:28:26;11.90;99.90
7307;DHT22;3694;48.732;9.248;2023-08-30T04:30:56;11.90;99.90
7307;DHT22;3694;48.732;9.248;2023-08-30T04:33:22;12.00;99.90
7307;DHT22;3694;48.732;9.248;2023-08-30T04:35:52;12.00;99.90
7307;DHT22;3694;48.732;9.248;2023-08-30T04:38:18;11.90;99.90
7307;DHT22;3694;48.732;9.248;2023-08-30T04:40:45;12.00;99.90
7307;DHT22;3694;48.732;9.248;2023-08-30T04:43:11;12.00;99.90
7307;DHT22;3694;48.732;9.248;2023-08-30T04:45:36;12.00;99.90
7307;DHT22;3694;48.732;9.248;2023-08-30T04:48:02;12.10;99.90
7307;DHT22;3694;48.732;9.248;2023-08-30T04:50:28;12.10;99.90
7307;DHT22;3694;48.732;9.248;2023-08-30T04:52:53;12.10;99.90
7307;DHT22;3694;48.732;9.248;2023-08-30T04:55:19;12.10;99.90
7307;DHT22;3694;48.732;9.248;2023-08-30T04:57:44;12.10;99.90
7307;DHT22;3694;48.732;9.248;2023-08-30T05:00:12;12.10;99.90
7307;DHT22;3694;48.732;9.248;2023-08-30T05:02:37;12.10;99.90
7307;DHT22;3694;48.732;9.248;2023-08-30T05:05:03;12.10;99.90
7307;DHT22;3694;48.732;9.248;2023-08-30T05:07:29;12.10;99.90
7307;DHT22;3694;48.732;9.248;2023-08-30T05:09:54;12.20;99.90
7307;DHT22;3694;48.732;9.248;2023-08-30T05:12:20;12.20;99.90
7307;DHT22;3694;48.732;9.248;2023-08-30T05:14:46;12.20;99.90
7307;DHT22;3694;48.732;9.248;2023-08-30T05:17:11;12.20;99.90
7307;DHT22;3694;48.732;9.248;2023-08-30T05:19:37;12.30;99.90
7307;DHT22;3694;48.732;9.248;2023-08-30T05:22:02;12.30;99.90
7307;DHT22;3694;48.732;9.248;2023-08-30T05:24:29;12.30;99.90
7307;DHT22;3694;48.732;9.248;2023-08-30T05:26:54;12.40;99.90
7307;DHT22;3694;48.732;9.248;2023-08-30T05:29:20;12.40;99.90
7307;DHT22;3694;48.732;9.248;2023-08-30T05:31:47;12.40;99.90
7307;DHT22;3694;48.732;9.248;2023-08-30T05:34:12;12.50;99.90
7307;DHT22;3694;48.732;9.248;2023-08-30T05:36:38;12.60;99.90
7307;DHT22;3694;48.732;9.248;2023-08-30T05:39:03;12.70;99.90
7307;DHT22;3694;48.732;9.248;2023-08-30T05:41:29;12.70;99.90
7307;DHT22;3694;48.732;9.248;2023-08-30T05:43:55;12.80;99.90
7307;DHT22;3694;48.732;9.248;2023-08-30T05:46:21;12.90;99.90
7307;DHT22;3694;48.732;9.248;2023-08-30T05:48:46;12.90;99.90
7307;DHT22;3694;48.732;9.248;2023-08-30T05:51:12;13.00;99.90
7307;DHT22;3694;48.732;9.248;2023-08-30T05:53:38;13.00;99.90
7307;DHT22;3694;48.732;9.248;2023-08-30T05:56:04;13.00;99.90
7307;DHT22;3694;48.732;9.248;2023-08-30T05:58:29;13.00;99.90
7307;DHT22;3694;48.732;9.248;2023-08-30T06:00:56;13.00;99.90
7307;DHT22;3694;48.732;9.248;2023-08-30T06:03:21;13.10;99.90
7307;DHT22;3694;48.732;9.248;2023-08-30T06:05:47;13.10;99.90
7307;DHT22;3694;48.732;9.248;2023-08-30T06:08:14;13.20;99.90
7307;DHT22;3694;48.732;9.248;2023-08-30T06:10:39;13.20;99.90
7307;DHT22;3694;48.732;9.248;2023-08-30T06:13:05;13.20;99.90
7307;DHT22;3694;48.732;9.248;2023-08-30T06:15:31;13.20;99.90
7307;DHT22;3694;48.732;9.248;2023-08-30T06:17:56;13.30;99.90
7307;DHT22;3694;48.732;9.248;2023-08-30T06:20:22;13.30;99.90
7307;DHT22;3694;48.732;9.248;2023-08-30T06:22:47;13.40;99.90
7307;DHT22;3694;48.732;9.248;2023-08-30T06:25:13;13.50;99.90
7307;DHT22;3694;48.732;9.248;2023-08-30T06:27:41;13.50;99.90
7307;DHT22;3694;48.732;9.248;2023-08-30T06:30:09;13.60;99.90
7307;DHT22;3694;48.732;9.248;2023-08-30T06:32:35;13.60;99.90
7307;DHT22;3694;48.732;9.248;2023-08-30T06:35:01;13.60;99.90
7307;DHT22;3694;48.732;9.248;2023-08-30T06:37:26;13.70;99.90
7307;DHT22;3694;48.732;9.248;2023-08-30T06:39:52;13.70;99.90
7307;DHT22;3694;48.732;9.248;2023-08-30T06:42:17;13.80;99.90
7307;DHT22;3694;48.732;9.248;2023-08-30T06:44:43;13.80;99.90
7307;DHT22;3694;48.732;9.248;2023-08-30T06:47:08;13.80;99.90
7307;DHT22;3694;48.732;9.248;2023-08-30T06:49:34;13.90;99.90
7307;DHT22;3694;48.732;9.248;2023-08-30T06:51:59;14.00;99.90
7307;DHT22;3694;48.732;9.248;2023-08-30T06:54:28;14.10;99.90
7307;DHT22;3694;48.732;9.248;2023-08-30T06:57:02;14.10;99.90
7307;DHT22;3694;48.732;9.248;2023-08-30T06:59:28;14.10;99.90
7307;DHT22;3694;48.732;9.248;2023-08-30T07:01:53;14.20;99.90
7307;DHT22;3694;48.732;9.248;2023-08-30T07:04:19;14.10;99.90
7307;DHT22;3694;48.732;9.248;2023-08-30T07:06:45;14.20;99.90
7307;DHT22;3694;48.732;9.248;2023-08-30T07:09:10;14.20;99.90
7307;DHT22;3694;48.732;9.248;2023-08-30T07:11:37;14.20;99.90
7307;DHT22;3694;48.732;9.248;2023-08-30T07:14:03;14.30;99.90
7307;DHT22;3694;48.732;9.248;2023-08-30T07:16:29;14.30;99.90
7307;DHT22;3694;48.732;9.248;2023-08-30T07:18:54;14.40;99.90
7307;DHT22;3694;48.732;9.248;2023-08-30T07:21:20;14.30;99.90
7307;DHT22;3694;48.732;9.248;2023-08-30T07:23:45;14.50;99.90
7307;DHT22;3694;48.732;9.248;2023-08-30T07:26:11;14.50;99.90
7307;DHT22;3694;48.732;9.248;2023-08-30T07:28:36;14.60;99.90
7307;DHT22;3694;48.732;9.248;2023-08-30T07:31:05;14.80;99.90
7307;DHT22;3694;48.732;9.248;2023-08-30T07:33:31;14.70;99.90
7307;DHT22;3694;48.732;9.248;2023-08-30T07:35:57;14.80;99.90
7307;DHT22;3694;48.732;9.248;2023-08-30T07:38:22;14.80;99.90
7307;DHT22;3694;48.732;9.248;2023-08-30T07:40:48;14.80;99.90
7307;DHT22;3694;48.732;9.248;2023-08-30T07:43:13;14.90;99.90
7307;DHT22;3694;48.732;9.248;2023-08-30T07:45:39;14.90;99.90
7307;DHT22;3694;48.732;9.248;2023-08-30T07:48:05;15.00;99.90
7307;DHT22;3694;48.732;9.248;2023-08-30T07:50:30;14.90;99.90
7307;DHT22;3694;48.732;9.248;2023-08-30T07:52:56;14.90;99.90
7307;DHT22;3694;48.732;9.248;2023-08-30T07:55:21;15.00;99.90
7307;DHT22;3694;48.732;9.248;2023-08-30T07:57:47;15.10;99.90
7307;DHT22;3694;48.732;9.248;2023-08-30T08:00:13;15.10;99.90
7307;DHT22;3694;48.732;9.248;2023-08-30T08:02:39;15.30;99.90
7307;DHT22;3694;48.732;9.248;2023-08-30T08:05:05;15.40;99.90
7307;DHT22;3694;48.732;9.248;2023-08-30T08:07:31;15.60;99.90
7307;DHT22;3694;48.732;9.248;2023-08-30T08:09:57;15.70;99.90
7307;DHT22;3694;48.732;9.248;2023-08-30T08:12:22;15.80;99.90
7307;DHT22;3694;48.732;9.248;2023-08-30T08:14:48;15.90;99.90
7307;DHT22;3694;48.732;9.248;2023-08-30T08:17:13;16.00;99.90
7307;DHT22;3694;48.732;9.248;2023-08-30T08:19:39;16.40;99.90
7307;DHT22;3694;48.732;9.248;2023-08-30T08:22:05;16.30;99.90
7307;DHT22;3694;48.732;9.248;2023-08-30T08:24:31;16.70;99.90
7307;DHT22;3694;48.732;9.248;2023-08-30T08:26:57;16.80;99.90
7307;DHT22;3694;48.732;9.248;2023-08-30T08:29:22;16.90;99.90
7307;DHT22;3694;48.732;9.248;2023-08-30T08:31:48;17.00;99.90
7307;DHT22;3694;48.732;9.248;2023-08-30T08:34:14;17.00;99.90
7307;DHT22;3694;48.732;9.248;2023-08-30T08:36:42;17.20;99.90
7307;DHT22;3694;48.732;9.248;2023-08-30T08:39:07;17.20;99.90
7307;DHT22;3694;48.732;9.248;2023-08-30T08:41:43;17.50;99.90
7307;DHT22;3694;48.732;9.248;2023-08-30T08:44:10;17.60;99.90
7307;DHT22;3694;48.732;9.248;2023-08-30T08:46:36;17.60;99.90
7307;DHT22;3694;48.732;9.248;2023-08-30T08:49:12;18.00;99.90
7307;DHT22;3694;48.732;9.248;2023-08-30T08:51:39;18.00;99.90
7307;DHT22;3694;48.732;9.248;2023-08-30T08:54:06;18.10;99.90
7307;DHT22;3694;48.732;9.248;2023-08-30T08:56:32;18.20;99.90
7307;DHT22;3694;48.732;9.248;2023-08-30T08:58:59;18.40;99.90
7307;DHT22;3694;48.732;9.248;2023-08-30T09:01:25;18.60;99.90
7307;DHT22;3694;48.732;9.248;2023-08-30T09:03:51;18.80;99.90
7307;DHT22;3694;48.732;9.248;2023-08-30T09:06:17;18.80;99.90
7307;DHT22;3694;48.732;9.248;2023-08-30T09:08:43;19.00;99.90
7307;DHT22;3694;48.732;9.248;2023-08-30T09:11:08;19.40;99.90
7307;DHT22;3694;48.732;9.248;2023-08-30T09:13:34;19.70;99.90
7307;DHT22;3694;48.732;9.248;2023-08-30T09:16:00;19.70;99.90
7307;DHT22;3694;48.732;9.248;2023-08-30T09:18:25;19.70;99.90
7307;DHT22;3694;48.732;9.248;2023-08-30T09:21:09;20.00;99.90
7307;DHT22;3694;48.732;9.248;2023-08-30T09:23:35;20.40;99.90
7307;DHT22;3694;48.732;9.248;2023-08-30T09:26:01;20.40;99.90
7307;DHT22;3694;48.732;9.248;2023-08-30T09:28:28;20.60;99.90
7307;DHT22;3694;48.732;9.248;2023-08-30T09:30:54;20.40;99.90
7307;DHT22;3694;48.732;9.248;2023-08-30T09:33:29;20.30;99.90
7307;DHT22;3694;48.732;9.248;2023-08-30T09:35:54;20.50;99.90
7307;DHT22;3694;48.732;9.248;2023-08-30T09:38:20;20.60;99.90
7307;DHT22;3694;48.732;9.248;2023-08-30T09:40:46;20.80;99.90
7307;DHT22;3694;48.732;9.248;2023-08-30T09:43:12;21.20;99.90
7307;DHT22;3694;48.732;9.248;2023-08-30T09:45:38;21.30;99.60
7307;DHT22;3694;48.732;9.248;2023-08-30T09:48:05;21.40;99.40
7307;DHT22;3694;48.732;9.248;2023-08-30T09:50:35;21.20;99.40
7307;DHT22;3694;48.732;9.248;2023-08-30T09:53:08;21.00;99.30
7307;DHT22;3694;48.732;9.248;2023-08-30T09:55:35;21.10;99.30
7307;DHT22;3694;48.732;9.248;2023-08-30T09:58:04;21.00;99.40
7307;DHT22;3694;48.732;9.248;2023-08-30T10:00:31;20.80;99.50
7307;DHT22;3694;48.732;9.248;2023-08-30T10:02:58;20.90;98.70
7307;DHT22;3694;48.732;9.248;2023-08-30T10:05:26;20.90;98.50
7307;DHT22;3694;48.732;9.248;2023-08-30T10:07:53;21.00;98.80
7307;DHT22;3694;48.732;9.248;2023-08-30T10:10:19;21.30;98.20
7307;DHT22;3694;48.732;9.248;2023-08-30T10:12:46;21.30;98.30
7307;DHT22;3694;48.732;9.248;2023-08-30T10:15:12;21.40;98.50
7307;DHT22;3694;48.732;9.248;2023-08-30T10:17:38;21.50;98.50
7307;DHT22;3694;48.732;9.248;2023-08-30T10:20:07;21.70;97.70
7307;DHT22;3694;48.732;9.248;2023-08-30T10:22:35;21.60;97.80
7307;DHT22;3694;48.732;9.248;2023-08-30T10:25:04;21.80;98.40
7307;DHT22;3694;48.732;9.248;2023-08-30T10:27:35;22.20;97.70
7307;DHT22;3694;48.732;9.248;2023-08-30T10:30:04;22.10;97.90
7307;DHT22;3694;48.732;9.248;2023-08-30T10:32:31;22.30;97.20
7307;DHT22;3694;48.732;9.248;2023-08-30T10:35:01;22.40;97.20
7307;DHT22;3694;48.732;9.248;2023-08-30T10:37:27;22.40;97.10
7307;DHT22;3694;48.732;9.248;2023-08-30T10:39:53;22.60;96.50
7307;DHT22;3694;48.732;9.248;2023-08-30T10:42:24;22.90;97.00
7307;DHT22;3694;48.732;9.248;2023-08-30T10:45:06;22.70;95.50
7307;DHT22;3694;48.732;9.248;2023-08-30T10:47:36;22.70;95.80
7307;DHT22;3694;48.732;9.248;2023-08-30T10:50:07;22.90;95.70
7307;DHT22;3694;48.732;9.248;2023-08-30T10:52:33;22.90;95.70
7307;DHT22;3694;48.732;9.248;2023-08-30T10:55:12;23.00;94.90
7307;DHT22;3694;48.732;9.248;2023-08-30T10:57:42;23.00;95.00
7307;DHT22;3694;48.732;9.248;2023-08-30T11:00:19;22.90;94.90
7307;DHT22;3694;48.732;9.248;2023-08-30T11:02:47;22.60;94.80
7307;DHT22;3694;48.732;9.248;2023-08-30T11:05:15;22.30;94.70
7307;DHT22;3694;48.732;9.248;2023-08-30T11:07:41;22.30;94.80
7307;DHT22;3694;48.732;9.248;2023-08-30T11:10:07;22.40;95.80
7307;DHT22;3694;48.732;9.248;2023-08-30T11:12:33;22.50;94.50
7307;DHT22;3694;48.732;9.248;2023-08-30T11:15:00;22.40;94.30
7307;DHT22;3694;48.732;9.248;2023-08-30T11:17:26;22.40;94.80
7307;DHT22;3694;48.732;9.248;2023-08-30T11:19:58;22.50;94.70
7307;DHT22;3694;48.732;9.248;2023-08-30T11:22:30;22.50;95.20
7307;DHT22;3694;48.732;9.248;2023-08-30T11:24:56;22.40;94.40
7307;DHT22;3694;48.732;9.248;2023-08-30T11:27:21;22.60;95.50
7307;DHT22;3694;48.732;9.248;2023-08-30T11:29:47;22.90;94.40
7307;DHT22;3694;48.732;9.248;2023-08-30T11:32:12;23.00;94.20
7307;DHT22;3694;48.732;9.248;2023-08-30T11:34:38;23.50;96.00
7307;DHT22;3694;48.732;9.248;2023-08-30T11:37:03;23.70;95.00
7307;DHT22;3694;48.732;9.248;2023-08-30T11:39:29;24.00;92.90
7307;DHT22;3694;48.732;9.248;2023-08-30T11:41:56;24.10;93.80
7307;DHT22;3694;48.732;9.248;2023-08-30T11:44:23;24.00;93.00
7307;DHT22;3694;48.732;9.248;2023-08-30T11:46:49;23.90;92.50
7307;DHT22;3694;48.732;9.248;2023-08-30T11:49:15;23.50;92.80
7307;DHT22;3694;48.732;9.248;2023-08-30T11:51:42;23.60;93.10
7307;DHT22;3694;48.732;9.248;2023-08-30T11:54:08;23.50;92.20
7307;DHT22;3694;48.732;9.248;2023-08-30T11:56:34;23.50;92.30
7307;DHT22;3694;48.732;9.248;2023-08-30T11:59:01;23.40;92.80
7307;DHT22;3694;48.732;9.248;2023-08-30T12:01:28;23.60;92.40
7307;DHT22;3694;48.732;9.248;2023-08-30T12:03:53;23.60;93.30
7307;DHT22;3694;48.732;9.248;2023-08-30T12:06:19;23.80;91.40
7307;DHT22;3694;48.732;9.248;2023-08-30T12:08:44;23.50;90.80
7307;DHT22;3694;48.732;9.248;2023-08-30T12:11:20;22.90;90.20
7307;DHT22;3694;48.732;9.248;2023-08-30T12:13:46;22.10;90.90
7307;DHT22;3694;48.732;9.248;2023-08-30T12:16:17;21.30;91.30
7307;DHT22;3694;48.732;9.248;2023-08-30T12:18:43;20.00;91.80
7307;DHT22;3694;48.732;9.248;2023-08-30T12:21:09;18.80;93.10
7307;DHT22;3694;48.732;9.248;2023-08-30T12:23:34;17.90;94.60
7307;DHT22;3694;48.732;9.248;2023-08-30T12:26:04;16.90;98.10
7307;DHT22;3694;48.732;9.248;2023-08-30T12:28:31;16.30;99.90
7307;DHT22;3694;48.732;9.248;2023-08-30T12:30:57;15.90;99.90
7307;DHT22;3694;48.732;9.248;2023-08-30T12:33:23;15.50;99.90
7307;DHT22;3694;48.732;9.248;2023-08-30T12:35:51;15.00;99.90
7307;DHT22;3694;48.732;9.248;2023-08-30T12:38:17;14.90;99.90
7307;DHT22;3694;48.732;9.248;2023-08-30T12:40:46;15.00;99.90
7307;DHT22;3694;48.732;9.248;2023-08-30T12:43:13;14.90;99.90
7307;DHT22;3694;48.732;9.248;2023-08-30T12:45:40;15.00;99.90
7307;DHT22;3694;48.732;9.248;2023-08-30T12:48:07;15.40;99.90
7307;DHT22;3694;48.732;9.248;2023-08-30T12:50:32;15.60;99.90
7307;DHT22;3694;48.732;9.248;2023-08-30T12:52:58;15.70;99.90
7307;DHT22;3694;48.732;9.248;2023-08-30T12:55:23;15.90;99.90
7307;DHT22;3694;48.732;9.248;2023-08-30T12:57:49;16.30;99.90
7307;DHT22;3694;48.732;9.248;2023-08-30T13:00:14;16.50;99.90
7307;DHT22;3694;48.732;9.248;2023-08-30T13:02:40;16.70;99.90
7307;DHT22;3694;48.732;9.248;2023-08-30T13:05:06;16.80;99.90
7307;DHT22;3694;48.732;9.248;2023-08-30T13:07:31;17.20;99.90
7307;DHT22;3694;48.732;9.248;2023-08-30T13:09:57;17.50;99.90
7307;DHT22;3694;48.732;9.248;2023-08-30T13:12:22;17.70;99.90
7307;DHT22;3694;48.732;9.248;2023-08-30T13:14:48;18.00;99.90
7307;DHT22;3694;48.732;9.248;2023-08-30T13:17:14;18.20;99.90
7307;DHT22;3694;48.732;9.248;2023-08-30T13:19:40;18.30;99.90
7307;DHT22;3694;48.732;9.248;2023-08-30T13:22:05;18.50;99.90
7307;DHT22;3694;48.732;9.248;2023-08-30T13:24:31;18.60;99.90
7307;DHT22;3694;48.732;9.248;2023-08-30T13:26:58;18.40;99.90
7307;DHT22;3694;48.732;9.248;2023-08-30T13:29:23;18.20;99.90
7307;DHT22;3694;48.732;9.248;2023-08-30T13:31:49;18.70;99.90
7307;DHT22;3694;48.732;9.248;2023-08-30T13:34:14;18.90;99.90
7307;DHT22;3694;48.732;9.248;2023-08-30T13:36:40;19.00;99.90
7307;DHT22;3694;48.732;9.248;2023-08-30T13:39:05;19.20;99.90
7307;DHT22;3694;48.732;9.248;2023-08-30T13:41:31;19.50;99.90
7307;DHT22;3694;48.732;9.248;2023-08-30T13:43:56;19.80;99.90
7307;DHT22;3694;48.732;9.248;2023-08-30T13:46:22;20.20;99.90
7307;DHT22;3694;48.732;9.248;2023-08-30T13:48:48;20.50;97.80
7307;DHT22;3694;48.732;9.248;2023-08-30T13:51:14;20.60;98.10
7307;DHT22;3694;48.732;9.248;2023-08-30T13:53:39;21.10;98.20
7307;DHT22;3694;48.732;9.248;2023-08-30T13:56:05;21.50;97.20
7307;DHT22;3694;48.732;9.248;2023-08-30T13:58:30;21.70;97.20
7307;DHT22;3694;48.732;9.248;2023-08-30T14:00:56;21.70;96.20
7307;DHT22;3694;48.732;9.248;2023-08-30T14:03:21;21.70;96.00
7307;DHT22;3694;48.732;9.248;2023-08-30T14:05:47;21.80;96.60
7307;DHT22;3694;48.732;9.248;2023-08-30T14:08:12;21.80;96.30
7307;DHT22;3694;48.732;9.248;2023-08-30T14:10:38;22.40;96.50
7307;DHT22;3694;48.732;9.248;2023-08-30T14:13:04;22.70;95.20
7307;DHT22;3694;48.732;9.248;2023-08-30T14:15:30;23.10;94.30
7307;DHT22;3694;48.732;9.248;2023-08-30T14:17:56;23.30;95.20
7307;DHT22;3694;48.732;9.248;2023-08-30T14:20:22;23.50;93.80
7307;DHT22;3694;48.732;9.248;2023-08-30T14:22:47;23.50;93.60
7307;DHT22;3694;48.732;9.248;2023-08-30T14:25:13;23.70;93.30
7307;DHT22;3694;48.732;9.248;2023-08-30T14:27:39;23.60;92.00
7307;DHT22;3694;48.732;9.248;2023-08-30T14:30:06;23.30;91.80
7307;DHT22;3694;48.732;9.248;2023-08-30T14:32:32;22.60;91.50
7307;DHT22;3694;48.732;9.248;2023-08-30T14:34:57;22.30;93.00
7307;DHT22;3694;48.732;9.248;2023-08-30T14:37:23;21.90;95.80
7307;DHT22;3694;48.732;9.248;2023-08-30T14:39:48;21.70;94.50
7307;DHT22;3694;48.732;9.248;2023-08-30T14:42:14;21.40;95.50
7307;DHT22;3694;48.732;9.248;2023-08-30T14:44:39;21.30;95.90
7307;DHT22;3694;48.732;9.248;2023-08-30T14:47:05;21.40;94.90
7307;DHT22;3694;48.732;9.248;2023-08-30T14:49:31;21.70;94.90
7307;DHT22;3694;48.732;9.248;2023-08-30T14:52:00;21.60;93.30
7307;DHT22;3694;48.732;9.248;2023-08-30T14:54:25;21.20;94.60
7307;DHT22;3694;48.732;9.248;2023-08-30T14:56:51;21.10;94.90
7307;DHT22;3694;48.732;9.248;2023-08-30T14:59:16;20.90;95.60
7307;DHT22;3694;48.732;9.248;2023-08-30T15:01:42;20.90;96.80
7307;DHT22;3694;48.732;9.248;2023-08-30T15:04:08;20.50;95.60
7307;DHT22;3694;48.732;9.248;2023-08-30T15:06:33;20.20;97.50
7307;DHT22;3694;48.732;9.248;2023-08-30T15:08:59;20.20;98.10
7307;DHT22;3694;48.732;9.248;2023-08-30T15:11:25;20.20;95.60
7307;DHT22;3694;48.732;9.248;2023-08-30T15:13:51;20.20;95.30
7307;DHT22;3694;48.732;9.248;2023-08-30T15:16:16;20.20;94.40
7307;DHT22;3694;48.732;9.248;2023-08-30T15:18:42;20.40;95.10
7307;DHT22;3694;48.732;9.248;2023-08-30T15:21:07;20.50;96.40
7307;DHT22;3694;48.732;9.248;2023-08-30T15:23:33;20.30;95.10
7307;DHT22;3694;48.732;9.248;2023-08-30T15:25:58;20.40;95.90
7307;DHT22;3694;48.732;9.248;2023-08-30T15:28:24;20.20;95.00
7307;DHT22;3694;48.732;9.248;2023-08-30T15:30:50;20.30;94.90
7307;DHT22;3694;48.732;9.248;2023-08-30T15:33:16;20.30;94.50
7307;DHT22;3694;48.732;9.248;2023-08-30T15:35:42;20.30;94.80
7307;DHT22;3694;48.732;9.248;2023-08-30T15:38:08;20.20;95.60
7307;DHT22;3694;48.732;9.248;2023-08-30T15:40:34;20.00;96.30
7307;DHT22;3694;48.732;9.248;2023-08-30T15:43:01;20.10;96.50
7307;DHT22;3694;48.732;9.248;2023-08-30T15:45:26;20.20;97.00
7307;DHT22;3694;48.732;9.248;2023-08-30T15:47:52;20.20;97.10
7307;DHT22;3694;48.732;9.248;2023-08-30T15:50:19;20.20;96.20
7307;DHT22;3694;48.732;9.248;2023-08-30T15:52:44;19.90;97.10
7307;DHT22;3694;48.732;9.248;2023-08-30T15:55:10;19.70;96.70
7307;DHT22;3694;48.732;9.248;2023-08-30T15:57:35;19.40;96.70
7307;DHT22;3694;48.732;9.248;2023-08-30T16:00:01;19.50;96.60